White Deer, Pennsylvania
Current Conditions -  °F | °C
As of 8:54 PM on Friday 21 Nov 2014 (Local Time) from KIPT Reporting Station
Clear Clear  
Wind Chill: 18°   Ceiling: Unl
Heat Index: 25°   Visibility: 10mi
Dew Point:   Wind: 6mph
Humidity: 51%   Direction: 280°W
Pressure: 30.49"   Gusts: NA
Location:  41.08°N, 76.87°W
Report Text: KIPT 220154Z 28005KT 10SM CLR M04/M13 A3049 RMK AO2 SLP332 T10391128
Loading
Personal Weather Stations






























Interactive Weather Map New forecast layout! Learn more

10-Day Weather Forecast

Advertisements
Track Severe Weather on mobile